EZY62HR EGJB-EGCC
Flight info
| Callsign | EZY62HR |
|---|---|
| Flight time | 0h 57m |
| Altitude | 31000 |
| Route | SKERY L22 EMWIP P16 FIMCA DCT TOJAQ DCT EPACE DCT ACCOP DCT MOCQO P16 AXCIS |
| Aircraft | A319/M-SDE3FGHIRWY/LB1 |
Departure
| Time | 2026-04-25 19:43 |
|---|---|
| Airport | Guernsey Airport (EGJB) |
Arrival
| Time | 2026-04-25 20:40 |
|---|---|
| Airport | Manchester Airport (EGCC) |
| Time | Latitude | Longitude | Altitude | Speed | Heading |
|---|---|---|---|---|---|
| 2026-04-25 19:23 | 49.43294 | -2.59456 | 330 ft | 0 kts | 177° |
| 2026-04-25 19:34 | 49.43316 | -2.59457 | 329 ft | 4 kts | 177° |
| 2026-04-25 19:35 | 49.43342 | -2.59459 | 326 ft | 4 kts | 189° |
| 2026-04-25 19:35 | 49.43363 | -2.59443 | 329 ft | 4 kts | 241° |
| 2026-04-25 19:35 | 49.43368 | -2.59424 | 326 ft | 0 kts | 266° |
| 2026-04-25 19:37 | 49.43368 | -2.59425 | 326 ft | 1 kts | 266° |
| 2026-04-25 19:37 | 49.43366 | -2.59466 | 327 ft | 5 kts | 267° |
| 2026-04-25 19:37 | 49.43361 | -2.59556 | 326 ft | 12 kts | 265° |
| 2026-04-25 19:38 | 49.43355 | -2.59708 | 323 ft | 16 kts | 266° |
| 2026-04-25 19:38 | 49.43343 | -2.59885 | 323 ft | 18 kts | 266° |
| 2026-04-25 19:38 | 49.43339 | -2.60082 | 319 ft | 20 kts | 267° |
| 2026-04-25 19:38 | 49.43333 | -2.60302 | 318 ft | 21 kts | 267° |
| 2026-04-25 19:39 | 49.43326 | -2.60522 | 313 ft | 21 kts | 268° |
| 2026-04-25 19:39 | 49.43344 | -2.60755 | 311 ft | 23 kts | 281° |
| 2026-04-25 19:39 | 49.43363 | -2.61003 | 308 ft | 23 kts | 271° |
| 2026-04-25 19:39 | 49.43359 | -2.61183 | 306 ft | 12 kts | 265° |
| 2026-04-25 19:40 | 49.43358 | -2.61201 | 305 ft | 0 kts | 266° |
| 2026-04-25 19:40 | 49.43358 | -2.61202 | 305 ft | 1 kts | 266° |
| 2026-04-25 19:41 | 49.43357 | -2.61230 | 305 ft | 5 kts | 272° |
| 2026-04-25 19:41 | 49.43389 | -2.61307 | 304 ft | 11 kts | 311° |
| 2026-04-25 19:41 | 49.43453 | -2.61359 | 305 ft | 9 kts | 1° |
| 2026-04-25 19:41 | 49.43465 | -2.61316 | 307 ft | 6 kts | 85° |
| 2026-04-25 19:42 | 49.43466 | -2.61309 | 308 ft | 0 kts | 85° |
| 2026-04-25 19:42 | 49.43468 | -2.61263 | 306 ft | 22 kts | 84° |
| 2026-04-25 19:42 | 49.43488 | -2.60537 | 314 ft | 112 kts | 88° |
| 2026-04-25 19:43 | 49.43523 | -2.59010 | 596 ft | 154 kts | 87° |
| 2026-04-25 19:43 | 49.43559 | -2.57395 | 1483 ft | 153 kts | 86° |
| 2026-04-25 19:43 | 49.43607 | -2.55678 | 1994 ft | 169 kts | 85° |
| 2026-04-25 19:43 | 49.43671 | -2.53797 | 2517 ft | 181 kts | 85° |
| 2026-04-25 19:44 | 49.43774 | -2.51763 | 2947 ft | 199 kts | 78° |
| 2026-04-25 19:44 | 49.44274 | -2.49693 | 3297 ft | 223 kts | 59° |
| 2026-04-25 19:44 | 49.45262 | -2.47701 | 3779 ft | 246 kts | 41° |
| 2026-04-25 19:44 | 49.46748 | -2.46265 | 4493 ft | 258 kts | 20° |
| 2026-04-25 19:45 | 49.48529 | -2.45764 | 5374 ft | 265 kts | 358° |
| 2026-04-25 19:45 | 49.50325 | -2.46440 | 6286 ft | 270 kts | 333° |
| 2026-04-25 19:45 | 49.51811 | -2.48227 | 7213 ft | 274 kts | 311° |
| 2026-04-25 19:45 | 49.52826 | -2.50730 | 8103 ft | 279 kts | 293° |
| 2026-04-25 19:46 | 49.53589 | -2.53517 | 8946 ft | 284 kts | 292° |
| 2026-04-25 19:46 | 49.54343 | -2.56319 | 9751 ft | 288 kts | 293° |
| 2026-04-25 19:46 | 49.55126 | -2.59190 | 10491 ft | 297 kts | 296° |
| 2026-04-25 19:46 | 49.56330 | -2.61931 | 10786 ft | 320 kts | 308° |
| 2026-04-25 19:47 | 49.57762 | -2.64733 | 11082 ft | 342 kts | 308° |
| 2026-04-25 19:47 | 49.59240 | -2.67619 | 11694 ft | 350 kts | 308° |
| 2026-04-25 19:47 | 49.60748 | -2.70586 | 12437 ft | 354 kts | 306° |
| 2026-04-25 19:47 | 49.62029 | -2.73878 | 13175 ft | 358 kts | 297° |
| 2026-04-25 19:48 | 49.63065 | -2.77344 | 13916 ft | 360 kts | 292° |
| 2026-04-25 19:48 | 49.63991 | -2.80972 | 14639 ft | 363 kts | 290° |
| 2026-04-25 19:48 | 49.64873 | -2.84656 | 15339 ft | 366 kts | 290° |
| 2026-04-25 19:48 | 49.65763 | -2.88369 | 16004 ft | 370 kts | 290° |
| 2026-04-25 19:49 | 49.66725 | -2.92061 | 16659 ft | 373 kts | 296° |
| 2026-04-25 19:49 | 49.67121 | -2.93209 | 16863 ft | 374 kts | 300° |
| 2026-04-25 19:49 | 49.69964 | -2.98277 | 17915 ft | 381 kts | 321° |
| 2026-04-25 19:49 | 49.72226 | -3.00478 | 18535 ft | 385 kts | 333° |
| 2026-04-25 19:50 | 49.77276 | -3.03547 | 19737 ft | 392 kts | 338° |
| 2026-04-25 19:50 | 49.79834 | -3.05076 | 20322 ft | 395 kts | 337° |
| 2026-04-25 19:50 | 49.82385 | -3.06611 | 20865 ft | 398 kts | 337° |
| 2026-04-25 19:51 | 49.84993 | -3.08188 | 21402 ft | 401 kts | 337° |
| 2026-04-25 19:51 | 49.87601 | -3.09769 | 21921 ft | 404 kts | 337° |
| 2026-04-25 19:51 | 49.90232 | -3.11367 | 22417 ft | 406 kts | 337° |
| 2026-04-25 19:51 | 49.92877 | -3.12969 | 22888 ft | 409 kts | 338° |
| 2026-04-25 19:52 | 49.95632 | -3.13958 | 23326 ft | 415 kts | 355° |
| 2026-04-25 19:52 | 49.98527 | -3.13599 | 23761 ft | 421 kts | 9° |
| 2026-04-25 19:52 | 50.01415 | -3.12672 | 24197 ft | 424 kts | 10° |
| 2026-04-25 19:52 | 50.04317 | -3.11703 | 24612 ft | 427 kts | 10° |
| 2026-04-25 19:53 | 50.07228 | -3.10710 | 25027 ft | 429 kts | 10° |
| 2026-04-25 19:53 | 50.10132 | -3.09704 | 25449 ft | 431 kts | 10° |
| 2026-04-25 19:53 | 50.13066 | -3.08678 | 25858 ft | 433 kts | 10° |
| 2026-04-25 19:53 | 50.16016 | -3.07634 | 26259 ft | 435 kts | 10° |
| 2026-04-25 19:54 | 50.18974 | -3.06579 | 26646 ft | 437 kts | 10° |
| 2026-04-25 19:54 | 50.21955 | -3.05513 | 27024 ft | 439 kts | 10° |
| 2026-04-25 19:54 | 50.24942 | -3.04438 | 27396 ft | 441 kts | 10° |
| 2026-04-25 19:54 | 50.25918 | -3.04084 | 27514 ft | 442 kts | 10° |
| 2026-04-25 19:55 | 50.30924 | -3.02260 | 28095 ft | 445 kts | 10° |
| 2026-04-25 19:55 | 50.33958 | -3.01146 | 28444 ft | 447 kts | 10° |
| 2026-04-25 19:55 | 50.36989 | -3.00024 | 28761 ft | 448 kts | 10° |
| 2026-04-25 19:55 | 50.39999 | -2.98911 | 29072 ft | 450 kts | 10° |
| 2026-04-25 19:56 | 50.43056 | -2.97781 | 29371 ft | 452 kts | 10° |
| 2026-04-25 19:56 | 50.46131 | -2.96637 | 29681 ft | 454 kts | 10° |
| 2026-04-25 19:56 | 50.49216 | -2.95488 | 29969 ft | 455 kts | 10° |
| 2026-04-25 19:56 | 50.52262 | -2.94344 | 30363 ft | 454 kts | 10° |
| 2026-04-25 19:57 | 50.55338 | -2.93184 | 30774 ft | 453 kts | 10° |
| 2026-04-25 19:57 | 50.58409 | -2.92023 | 31116 ft | 453 kts | 10° |
| 2026-04-25 19:57 | 50.61471 | -2.90864 | 31206 ft | 452 kts | 10° |
| 2026-04-25 19:58 | 50.67602 | -2.88534 | 31220 ft | 452 kts | 10° |
| 2026-04-25 19:58 | 50.73683 | -2.86224 | 31220 ft | 452 kts | 10° |
| 2026-04-25 19:59 | 50.79807 | -2.83911 | 31220 ft | 452 kts | 10° |
| 2026-04-25 19:59 | 50.85943 | -2.81588 | 31220 ft | 452 kts | 10° |
| 2026-04-25 20:00 | 50.92061 | -2.79269 | 31217 ft | 452 kts | 10° |
| 2026-04-25 20:00 | 50.98160 | -2.76957 | 31215 ft | 452 kts | 10° |
| 2026-04-25 20:01 | 51.07358 | -2.73491 | 31212 ft | 452 kts | 10° |
| 2026-04-25 20:01 | 51.13462 | -2.71188 | 31207 ft | 452 kts | 10° |
| 2026-04-25 20:02 | 51.19596 | -2.68868 | 31211 ft | 453 kts | 10° |
| 2026-04-25 20:02 | 51.25734 | -2.66563 | 31211 ft | 453 kts | 10° |
| 2026-04-25 20:03 | 51.31842 | -2.64268 | 31213 ft | 453 kts | 10° |
| 2026-04-25 20:03 | 51.38000 | -2.61952 | 31215 ft | 454 kts | 10° |
| 2026-04-25 20:04 | 51.44195 | -2.60632 | 31218 ft | 446 kts | 351° |
| 2026-04-25 20:04 | 51.50121 | -2.63203 | 31214 ft | 443 kts | 340° |
| 2026-04-25 20:05 | 51.56022 | -2.66176 | 31214 ft | 443 kts | 340° |
| 2026-04-25 20:05 | 51.61834 | -2.69354 | 31204 ft | 441 kts | 331° |
| 2026-04-25 20:06 | 51.64279 | -2.72139 | 31210 ft | 422 kts | 314° |
| 2026-04-25 20:06 | 51.66006 | -2.75884 | 31210 ft | 412 kts | 296° |
| 2026-04-25 20:06 | 51.66883 | -2.80244 | 31212 ft | 410 kts | 278° |
| 2026-04-25 20:06 | 51.67003 | -2.84834 | 31212 ft | 410 kts | 271° |
| 2026-04-25 20:07 | 51.66940 | -2.94008 | 31212 ft | 409 kts | 270° |
| 2026-04-25 20:07 | 51.66859 | -3.03118 | 31210 ft | 409 kts | 270° |
| 2026-04-25 20:08 | 51.66769 | -3.12032 | 31209 ft | 383 kts | 270° |
| 2026-04-25 20:08 | 51.66675 | -3.20478 | 31210 ft | 375 kts | 270° |
| 2026-04-25 20:09 | 51.66580 | -3.28877 | 31211 ft | 374 kts | 270° |
| 2026-04-25 20:09 | 51.66486 | -3.37240 | 31210 ft | 374 kts | 270° |
| 2026-04-25 20:10 | 51.66428 | -3.45617 | 31209 ft | 372 kts | 275° |
| 2026-04-25 20:10 | 51.66968 | -3.49621 | 31208 ft | 370 kts | 292° |
| 2026-04-25 20:10 | 51.68264 | -3.53197 | 31204 ft | 371 kts | 309° |
| 2026-04-25 20:11 | 51.70210 | -3.55935 | 31199 ft | 375 kts | 327° |
| 2026-04-25 20:11 | 51.72626 | -3.57550 | 31193 ft | 380 kts | 345° |
| 2026-04-25 20:11 | 51.75273 | -3.57830 | 31187 ft | 387 kts | 3° |
| 2026-04-25 20:11 | 51.77952 | -3.57153 | 31187 ft | 389 kts | 6° |
| 2026-04-25 20:12 | 51.82404 | -3.55910 | 31184 ft | 391 kts | 6° |
| 2026-04-25 20:12 | 51.86896 | -3.54643 | 31185 ft | 392 kts | 6° |
| 2026-04-25 20:13 | 51.93161 | -3.52896 | 31185 ft | 392 kts | 6° |
| 2026-04-25 20:13 | 51.98546 | -3.51396 | 31188 ft | 392 kts | 6° |
| 2026-04-25 20:14 | 52.03903 | -3.49891 | 31188 ft | 393 kts | 6° |
| 2026-04-25 20:14 | 52.09279 | -3.48387 | 31189 ft | 393 kts | 6° |
| 2026-04-25 20:15 | 52.14692 | -3.46876 | 31190 ft | 394 kts | 6° |
| 2026-04-25 20:15 | 52.20120 | -3.45344 | 31205 ft | 400 kts | 6° |
| 2026-04-25 20:16 | 52.22875 | -3.44572 | 31212 ft | 413 kts | 6° |
| 2026-04-25 20:16 | 52.25744 | -3.43764 | 31209 ft | 425 kts | 7° |
| 2026-04-25 20:16 | 52.31712 | -3.42073 | 31082 ft | 439 kts | 7° |
| 2026-04-25 20:17 | 52.34749 | -3.41208 | 30155 ft | 444 kts | 7° |
| 2026-04-25 20:17 | 52.37720 | -3.40359 | 29808 ft | 433 kts | 7° |
| 2026-04-25 20:17 | 52.40665 | -3.39516 | 29343 ft | 426 kts | 7° |
| 2026-04-25 20:17 | 52.43578 | -3.38686 | 28796 ft | 422 kts | 7° |
| 2026-04-25 20:18 | 52.46459 | -3.37863 | 28237 ft | 418 kts | 7° |
| 2026-04-25 20:18 | 52.49324 | -3.37045 | 27661 ft | 415 kts | 7° |
| 2026-04-25 20:18 | 52.52160 | -3.36236 | 27083 ft | 412 kts | 7° |
| 2026-04-25 20:18 | 52.54942 | -3.35438 | 26531 ft | 409 kts | 7° |
| 2026-04-25 20:19 | 52.57743 | -3.34628 | 25976 ft | 406 kts | 7° |
| 2026-04-25 20:19 | 52.60517 | -3.33827 | 25431 ft | 403 kts | 7° |
| 2026-04-25 20:19 | 52.63257 | -3.32880 | 24898 ft | 402 kts | 13° |
| 2026-04-25 20:19 | 52.65911 | -3.31395 | 24380 ft | 401 kts | 17° |
| 2026-04-25 20:20 | 52.68532 | -3.29839 | 23871 ft | 398 kts | 17° |
| 2026-04-25 20:20 | 52.71099 | -3.28304 | 23456 ft | 394 kts | 17° |
| 2026-04-25 20:20 | 52.73653 | -3.26769 | 23062 ft | 385 kts | 17° |
| 2026-04-25 20:20 | 52.76127 | -3.25279 | 22682 ft | 370 kts | 17° |
| 2026-04-25 20:21 | 52.78510 | -3.23844 | 22307 ft | 357 kts | 17° |
| 2026-04-25 20:21 | 52.80819 | -3.22460 | 21799 ft | 348 kts | 17° |
| 2026-04-25 20:21 | 52.83087 | -3.21105 | 21189 ft | 343 kts | 17° |
| 2026-04-25 20:21 | 52.85297 | -3.19783 | 20577 ft | 339 kts | 17° |
| 2026-04-25 20:22 | 52.87512 | -3.18475 | 19946 ft | 335 kts | 15° |
| 2026-04-25 20:22 | 52.88995 | -3.17812 | 19537 ft | 331 kts | 9° |
| 2026-04-25 20:22 | 52.92024 | -3.17190 | 18717 ft | 324 kts | 360° |
| 2026-04-25 20:22 | 52.94285 | -3.17020 | 18240 ft | 324 kts | 0° |
| 2026-04-25 20:23 | 52.96539 | -3.16838 | 17890 ft | 321 kts | 0° |
| 2026-04-25 20:23 | 52.98743 | -3.16657 | 17534 ft | 320 kts | 0° |
| 2026-04-25 20:23 | 53.00960 | -3.16481 | 17185 ft | 318 kts | 0° |
| 2026-04-25 20:23 | 53.03165 | -3.16307 | 16827 ft | 316 kts | 0° |
| 2026-04-25 20:24 | 53.05364 | -3.16133 | 16472 ft | 315 kts | 1° |
| 2026-04-25 20:24 | 53.07520 | -3.15959 | 16134 ft | 313 kts | 0° |
| 2026-04-25 20:24 | 53.09698 | -3.15789 | 15790 ft | 312 kts | 1° |
| 2026-04-25 20:24 | 53.11862 | -3.15619 | 15447 ft | 310 kts | 0° |
| 2026-04-25 20:25 | 53.14024 | -3.15446 | 15098 ft | 309 kts | 1° |
| 2026-04-25 20:25 | 53.16168 | -3.15275 | 14750 ft | 307 kts | 1° |
| 2026-04-25 20:25 | 53.18300 | -3.15107 | 14413 ft | 306 kts | 1° |
| 2026-04-25 20:25 | 53.20400 | -3.14942 | 14080 ft | 305 kts | 1° |
| 2026-04-25 20:26 | 53.22517 | -3.14774 | 13741 ft | 303 kts | 1° |
| 2026-04-25 20:26 | 53.24625 | -3.14606 | 13392 ft | 302 kts | 1° |
| 2026-04-25 20:26 | 53.26700 | -3.14439 | 13051 ft | 300 kts | 1° |
| 2026-04-25 20:26 | 53.28788 | -3.14269 | 12702 ft | 299 kts | 1° |
| 2026-04-25 20:27 | 53.30862 | -3.14102 | 12358 ft | 297 kts | 1° |
| 2026-04-25 20:27 | 53.32926 | -3.13938 | 12011 ft | 296 kts | 1° |
| 2026-04-25 20:27 | 53.34984 | -3.13773 | 11657 ft | 295 kts | 1° |
| 2026-04-25 20:27 | 53.37008 | -3.13348 | 11303 ft | 294 kts | 14° |
| 2026-04-25 20:28 | 53.38880 | -3.11952 | 10948 ft | 294 kts | 32° |
| 2026-04-25 20:28 | 53.40384 | -3.09719 | 10594 ft | 294 kts | 50° |
| 2026-04-25 20:28 | 53.41499 | -3.06837 | 10217 ft | 293 kts | 59° |
| 2026-04-25 20:28 | 53.42522 | -3.03878 | 9845 ft | 292 kts | 59° |
| 2026-04-25 20:29 | 53.43540 | -3.00939 | 9471 ft | 290 kts | 59° |
| 2026-04-25 20:29 | 53.44551 | -2.98019 | 9097 ft | 289 kts | 59° |
| 2026-04-25 20:29 | 53.45548 | -2.95137 | 8722 ft | 287 kts | 59° |
| 2026-04-25 20:29 | 53.46549 | -2.92244 | 8345 ft | 285 kts | 59° |
| 2026-04-25 20:30 | 53.47545 | -2.89371 | 7949 ft | 283 kts | 59° |
| 2026-04-25 20:30 | 53.48529 | -2.86524 | 7668 ft | 277 kts | 59° |
| 2026-04-25 20:30 | 53.49475 | -2.83777 | 7376 ft | 272 kts | 59° |
| 2026-04-25 20:30 | 53.50410 | -2.81057 | 7221 ft | 261 kts | 59° |
| 2026-04-25 20:31 | 53.51019 | -2.78287 | 7226 ft | 251 kts | 84° |
| 2026-04-25 20:31 | 53.50742 | -2.75413 | 7230 ft | 251 kts | 116° |
| 2026-04-25 20:31 | 53.49649 | -2.73197 | 7231 ft | 251 kts | 147° |
| 2026-04-25 20:31 | 53.48030 | -2.72195 | 7231 ft | 249 kts | 174° |
| 2026-04-25 20:32 | 53.46302 | -2.71994 | 7182 ft | 248 kts | 179° |
| 2026-04-25 20:32 | 53.44577 | -2.71902 | 6831 ft | 247 kts | 180° |
| 2026-04-25 20:32 | 53.42857 | -2.71826 | 6463 ft | 246 kts | 180° |
| 2026-04-25 20:32 | 53.41158 | -2.71757 | 6256 ft | 243 kts | 180° |
| 2026-04-25 20:33 | 53.39493 | -2.71479 | 6247 ft | 246 kts | 163° |
| 2026-04-25 20:33 | 53.37937 | -2.70254 | 6248 ft | 247 kts | 151° |
| 2026-04-25 20:33 | 53.36434 | -2.68813 | 6062 ft | 246 kts | 150° |
| 2026-04-25 20:33 | 53.35456 | -2.67856 | 5829 ft | 245 kts | 150° |
| 2026-04-25 20:34 | 53.33504 | -2.65945 | 5383 ft | 243 kts | 150° |
| 2026-04-25 20:34 | 53.32044 | -2.64524 | 5047 ft | 241 kts | 150° |
| 2026-04-25 20:34 | 53.30595 | -2.63123 | 4725 ft | 240 kts | 150° |
| 2026-04-25 20:34 | 53.29147 | -2.61733 | 4401 ft | 238 kts | 150° |
| 2026-04-25 20:35 | 53.27734 | -2.60388 | 4089 ft | 236 kts | 150° |
| 2026-04-25 20:35 | 53.26307 | -2.59039 | 3770 ft | 234 kts | 150° |
| 2026-04-25 20:35 | 53.24890 | -2.57711 | 3445 ft | 233 kts | 150° |
| 2026-04-25 20:35 | 53.23662 | -2.56014 | 3118 ft | 228 kts | 122° |
| 2026-04-25 20:36 | 53.23211 | -2.53590 | 2998 ft | 214 kts | 89° |
| 2026-04-25 20:36 | 53.23509 | -2.51268 | 2999 ft | 198 kts | 64° |
| 2026-04-25 20:36 | 53.24264 | -2.49421 | 2891 ft | 190 kts | 50° |
| 2026-04-25 20:36 | 53.25099 | -2.47722 | 2682 ft | 188 kts | 50° |
| 2026-04-25 20:37 | 53.25927 | -2.46031 | 2461 ft | 187 kts | 50° |
| 2026-04-25 20:37 | 53.26739 | -2.44366 | 2206 ft | 184 kts | 51° |
| 2026-04-25 20:37 | 53.27520 | -2.42762 | 1965 ft | 174 kts | 51° |
| 2026-04-25 20:37 | 53.28248 | -2.41266 | 1747 ft | 156 kts | 51° |
| 2026-04-25 20:38 | 53.28893 | -2.39938 | 1540 ft | 139 kts | 51° |
| 2026-04-25 20:38 | 53.29488 | -2.38715 | 1365 ft | 132 kts | 51° |
| 2026-04-25 20:38 | 53.30061 | -2.37535 | 1188 ft | 129 kts | 51° |
| 2026-04-25 20:38 | 53.30624 | -2.36375 | 1001 ft | 128 kts | 50° |
| 2026-04-25 20:39 | 53.31177 | -2.35236 | 841 ft | 127 kts | 51° |
| 2026-04-25 20:39 | 53.31739 | -2.34078 | 720 ft | 128 kts | 51° |
| 2026-04-25 20:39 | 53.32302 | -2.32919 | 542 ft | 128 kts | 50° |
| 2026-04-25 20:39 | 53.32674 | -2.32154 | 422 ft | 128 kts | 51° |
| 2026-04-25 20:40 | 53.33412 | -2.30620 | 241 ft | 127 kts | 50° |
| 2026-04-25 20:40 | 53.33907 | -2.29604 | 227 ft | 90 kts | 51° |
| 2026-04-25 20:40 | 53.34193 | -2.29009 | 230 ft | 50 kts | 51° |
| 2026-04-25 20:40 | 53.34378 | -2.28652 | 224 ft | 34 kts | 37° |
| 2026-04-25 20:41 | 53.34577 | -2.28492 | 231 ft | 28 kts | 22° |
| 2026-04-25 20:41 | 53.34706 | -2.28395 | 232 ft | 20 kts | 36° |
| 2026-04-25 20:41 | 53.34797 | -2.28225 | 233 ft | 19 kts | 51° |
| 2026-04-25 20:41 | 53.34883 | -2.28046 | 229 ft | 21 kts | 50° |
| 2026-04-25 20:42 | 53.34976 | -2.27853 | 230 ft | 22 kts | 51° |
| 2026-04-25 20:42 | 53.35071 | -2.27659 | 233 ft | 20 kts | 51° |
| 2026-04-25 20:42 | 53.35159 | -2.27476 | 236 ft | 20 kts | 53° |
| 2026-04-25 20:42 | 53.35244 | -2.27305 | 239 ft | 19 kts | 49° |
| 2026-04-25 20:43 | 53.35323 | -2.27190 | 243 ft | 12 kts | 16° |
| 2026-04-25 20:43 | 53.35395 | -2.27221 | 246 ft | 11 kts | 323° |
| 2026-04-25 20:43 | 53.35467 | -2.27319 | 248 ft | 14 kts | 323° |
| 2026-04-25 20:43 | 53.35546 | -2.27422 | 247 ft | 16 kts | 321° |
| 2026-04-25 20:44 | 53.35614 | -2.27514 | 245 ft | 9 kts | 321° |
| 2026-04-25 20:44 | 53.35625 | -2.27529 | 246 ft | 0 kts | 320° |
| 2026-04-25 20:44 | 53.35625 | -2.27530 | 246 ft | 1 kts | 320° |
| 2026-04-25 20:44 | 53.35639 | -2.27549 | 246 ft | 5 kts | 320° |
| 2026-04-25 20:45 | 53.35661 | -2.27580 | 246 ft | 4 kts | 321° |
| 2026-04-25 20:45 | 53.35684 | -2.27607 | 247 ft | 6 kts | 329° |
| 2026-04-25 20:45 | 53.35730 | -2.27639 | 249 ft | 8 kts | 340° |
| 2026-04-25 20:45 | 53.35787 | -2.27681 | 252 ft | 10 kts | 324° |
| 2026-04-25 20:46 | 53.35853 | -2.27728 | 254 ft | 12 kts | 1° |
| 2026-04-25 20:46 | 53.35944 | -2.27728 | 255 ft | 15 kts | 356° |
| 2026-04-25 20:46 | 53.36039 | -2.27821 | 255 ft | 16 kts | 321° |
| 2026-04-25 20:46 | 53.36123 | -2.27931 | 255 ft | 14 kts | 322° |
| 2026-04-25 20:47 | 53.36193 | -2.28031 | 255 ft | 12 kts | 314° |
| 2026-04-25 20:47 | 53.36249 | -2.28123 | 255 ft | 10 kts | 315° |
| 2026-04-25 20:47 | 53.36296 | -2.28203 | 255 ft | 9 kts | 314° |
| 2026-04-25 20:47 | 53.36343 | -2.28283 | 255 ft | 10 kts | 314° |
| 2026-04-25 20:48 | 53.36394 | -2.28374 | 255 ft | 11 kts | 303° |
| 2026-04-25 20:48 | 53.36433 | -2.28510 | 255 ft | 14 kts | 311° |
| 2026-04-25 20:48 | 53.36498 | -2.28623 | 255 ft | 13 kts | 315° |
| 2026-04-25 20:48 | 53.36556 | -2.28720 | 255 ft | 11 kts | 313° |
| 2026-04-25 20:49 | 53.36617 | -2.28778 | 255 ft | 11 kts | 7° |
| 2026-04-25 20:49 | 53.36673 | -2.28710 | 255 ft | 6 kts | 45° |
| 2026-04-25 20:49 | 53.36668 | -2.28664 | 255 ft | 4 kts | 130° |
| 2026-04-25 20:49 | 53.36651 | -2.28633 | 255 ft | 4 kts | 134° |
| 2026-04-25 20:50 | 53.36640 | -2.28614 | 255 ft | 1 kts | 135° |
| 2026-04-25 20:50 | 53.36639 | -2.28613 | 255 ft | 0 kts | 135° |